createdAt,value
2019-05-21T00:00:13.221Z,18.53
2019-05-21T00:02:35.294Z,17.97
2019-05-21T00:05:08.158Z,18.83
2019-05-21T00:07:38.368Z,18.00
2019-05-21T00:10:09.118Z,18.17
2019-05-21T00:12:45.182Z,19.23
2019-05-21T00:15:14.773Z,21.67
2019-05-21T00:17:55.028Z,23.80
2019-05-21T00:20:27.928Z,23.73
2019-05-21T00:23:00.816Z,20.83
2019-05-21T00:25:31.731Z,29.53
2019-05-21T00:28:42.043Z,29.47
2019-05-21T00:31:47.484Z,28.07
2019-05-21T00:34:52.802Z,40.63
2019-05-21T00:37:57.751Z,37.23
2019-05-21T00:41:02.602Z,34.80
2019-05-21T00:43:55.631Z,31.30
2019-05-21T00:46:25.087Z,26.43
2019-05-21T00:49:11.189Z,25.50
2019-05-21T00:52:08.518Z,27.57
2019-05-21T00:54:37.999Z,29.00
2019-05-21T00:57:23.041Z,27.33
2019-05-21T00:59:54.201Z,26.70
2019-05-21T01:06:10.781Z,33.97
2019-05-21T01:08:51.104Z,28.53
2019-05-21T01:11:44.935Z,23.43
2019-05-21T01:14:25.329Z,32.85
2019-05-21T01:17:06.103Z,31.83
2019-05-21T01:19:56.322Z,25.33
2019-05-21T01:22:28.320Z,30.90
2019-05-21T01:25:07.735Z,24.77
2019-05-21T01:28:26.806Z,27.50
2019-05-21T01:33:52.194Z,22.33
2019-05-21T01:36:27.704Z,22.20
2019-05-21T01:39:31.909Z,23.40
2019-05-21T01:42:09.075Z,20.70
2019-05-21T01:44:40.858Z,21.53
2019-05-21T01:47:11.408Z,23.35
2019-05-21T01:49:44.859Z,29.57
2019-05-21T01:55:20.707Z,22.03
2019-05-21T01:58:04.001Z,22.43
2019-05-21T02:00:33.569Z,22.60
2019-05-21T02:03:12.829Z,17.73
2019-05-21T02:06:03.298Z,19.30
2019-05-21T02:08:36.816Z,17.77
2019-05-21T02:11:31.253Z,12.53
2019-05-21T02:14:05.129Z,14.47
2019-05-21T02:16:39.735Z,15.93
2019-05-21T02:19:25.830Z,14.30
2019-05-21T02:21:53.141Z,16.77
2019-05-21T02:24:22.565Z,14.93
2019-05-21T02:26:57.521Z,18.90
2019-05-21T02:29:42.479Z,22.10
2019-05-21T02:32:32.047Z,18.37
2019-05-21T02:35:03.975Z,16.03
2019-05-21T02:37:33.936Z,14.90
2019-05-21T02:40:10.630Z,14.00
2019-05-21T02:42:40.682Z,17.60
2019-05-21T02:45:16.393Z,14.43
2019-05-21T02:47:47.472Z,14.07
2019-05-21T02:50:18.233Z,11.70
2019-05-21T02:52:58.794Z,10.53
2019-05-21T02:55:34.718Z,12.40
2019-05-21T02:58:22.552Z,12.90
2019-05-21T03:01:24.190Z,12.40
2019-05-21T03:04:18.958Z,12.33
2019-05-21T03:07:14.073Z,17.97
2019-05-21T03:13:17.992Z,13.63
2019-05-21T03:15:53.394Z,12.77
2019-05-21T03:18:25.804Z,14.33
2019-05-21T03:21:14.662Z,16.80
2019-05-21T03:23:45.108Z,15.90
2019-05-21T03:26:18.581Z,16.87
2019-05-21T03:29:01.408Z,16.57
2019-05-21T03:31:52.731Z,17.13
2019-05-21T03:34:24.002Z,14.03
2019-05-21T03:37:04.626Z,18.23
2019-05-21T03:39:38.655Z,20.20
2019-05-21T03:42:12.436Z,20.13
2019-05-21T03:44:59.019Z,26.53
2019-05-21T03:47:19.666Z,25.23
2019-05-21T03:50:07.461Z,28.20
2019-05-21T03:52:41.091Z,30.67
2019-05-21T03:55:30.489Z,31.60
2019-05-21T03:58:04.047Z,30.37
2019-05-21T04:00:46.351Z,30.87
2019-05-21T04:03:18.329Z,27.83
2019-05-21T04:06:00.877Z,31.80
2019-05-21T04:08:32.789Z,32.90
2019-05-21T04:11:30.865Z,32.97
2019-05-21T04:14:00.438Z,36.47
2019-05-21T04:16:46.431Z,33.53
2019-05-21T04:19:44.434Z,31.93
2019-05-21T04:22:28.768Z,38.00
2019-05-21T04:31:03.723Z,27.93
2019-05-21T04:33:50.827Z,28.93
2019-05-21T04:36:27.244Z,30.57
2019-05-21T04:39:15.417Z,34.23
2019-05-21T04:41:51.800Z,31.33
2019-05-21T04:44:25.138Z,37.17
2019-05-21T04:47:00.511Z,41.57
2019-05-21T04:49:31.931Z,31.73
2019-05-21T04:55:44.485Z,33.10
2019-05-21T04:58:19.761Z,27.37
2019-05-21T05:01:09.627Z,27.77
2019-05-21T05:03:59.920Z,29.03
2019-05-21T05:06:47.099Z,33.97
2019-05-21T05:09:20.112Z,32.33
2019-05-21T05:11:54.906Z,34.50
2019-05-21T05:14:27.545Z,36.63
2019-05-21T05:17:02.334Z,36.20
2019-05-21T05:19:32.435Z,36.83
2019-05-21T05:22:02.161Z,37.50
2019-05-21T05:25:03.879Z,36.53
2019-05-21T05:27:36.734Z,30.13
2019-05-21T05:30:29.668Z,34.73
2019-05-21T05:32:59.291Z,46.63
2019-05-21T05:35:57.659Z,39.47
2019-05-21T05:39:18.285Z,32.13
2019-05-21T05:42:28.776Z,33.33
2019-05-21T05:45:08.278Z,35.33
2019-05-21T05:47:52.242Z,35.07
2019-05-21T05:50:25.082Z,37.97
2019-05-21T05:53:01.800Z,30.47
2019-05-21T05:58:27.541Z,30.93
2019-05-21T06:00:59.014Z,31.73
2019-05-21T06:03:28.731Z,28.17
2019-05-21T06:08:54.271Z,31.83
2019-05-21T06:11:40.339Z,36.55
2019-05-21T06:14:18.254Z,31.20
2019-05-21T06:17:09.475Z,31.40
2019-05-21T06:19:48.589Z,28.87
2019-05-21T06:22:27.679Z,32.67
2019-05-21T06:25:06.898Z,38.07
2019-05-21T06:27:54.526Z,32.53
2019-05-21T06:30:24.977Z,35.60
2019-05-21T06:32:56.331Z,37.97
2019-05-21T06:35:25.685Z,26.67
2019-05-21T06:38:16.173Z,26.67
2019-05-21T06:40:34.483Z,37.10
2019-05-21T06:43:06.445Z,28.77
2019-05-21T06:45:44.260Z,34.23
2019-05-21T06:48:16.360Z,39.33
2019-05-21T06:50:48.575Z,28.87
2019-05-21T06:53:26.089Z,31.43
2019-05-21T06:56:35.674Z,34.40
2019-05-21T06:59:06.690Z,24.77
2019-05-21T07:01:49.467Z,24.73
2019-05-21T07:07:07.490Z,22.77
2019-05-21T07:09:49.371Z,21.60
2019-05-21T07:12:56.841Z,26.60
2019-05-21T07:15:26.813Z,15.63
2019-05-21T07:18:05.747Z,19.63
2019-05-21T07:20:49.093Z,22.00
2019-05-21T07:23:42.373Z,21.20
2019-05-21T07:26:17.217Z,19.60
2019-05-21T07:28:49.846Z,15.77
2019-05-21T07:31:43.049Z,18.67
2019-05-21T07:34:37.359Z,18.10
2019-05-21T07:37:22.030Z,17.97
2019-05-21T07:39:51.591Z,21.97
2019-05-21T07:42:41.528Z,16.37
2019-05-21T07:45:16.790Z,18.23
2019-05-21T07:48:24.102Z,14.67
2019-05-21T07:50:59.321Z,18.60
2019-05-21T07:53:41.817Z,19.53
2019-05-21T07:56:30.724Z,14.00
2019-05-21T07:59:22.511Z,11.57
2019-05-21T08:02:14.412Z,11.53
2019-05-21T08:05:29.817Z,16.37
2019-05-21T08:08:08.832Z,12.77
2019-05-21T08:10:45.941Z,13.70
2019-05-21T08:13:27.115Z,15.90
2019-05-21T08:16:02.302Z,17.50
2019-05-21T08:18:34.879Z,18.20
2019-05-21T08:21:11.592Z,16.60
2019-05-21T08:23:48.810Z,17.07
2019-05-21T08:26:21.155Z,13.03
2019-05-21T08:28:52.957Z,14.90
2019-05-21T08:31:40.595Z,17.37
2019-05-21T08:34:16.750Z,12.23
2019-05-21T08:36:48.471Z,13.53
2019-05-21T08:39:29.457Z,9.00
2019-05-21T08:42:02.281Z,11.03
2019-05-21T08:44:52.062Z,10.90
2019-05-21T08:47:21.801Z,11.80
2019-05-21T08:50:01.164Z,9.67
2019-05-21T08:55:19.110Z,11.33
2019-05-21T08:58:05.594Z,8.40
2019-05-21T09:00:36.615Z,9.60
2019-05-21T09:03:18.790Z,9.33
2019-05-21T09:06:11.602Z,13.10
2019-05-21T09:08:43.177Z,10.13
2019-05-21T09:11:14.203Z,13.80
2019-05-21T09:13:47.752Z,13.13
2019-05-21T09:16:17.211Z,21.57
2019-05-21T09:18:48.056Z,13.23
2019-05-21T09:21:18.205Z,10.53
2019-05-21T09:23:51.513Z,12.27
2019-05-21T09:26:21.397Z,10.20
2019-05-21T09:28:53.943Z,14.23
2019-05-21T09:31:29.037Z,8.27
2019-05-21T09:33:59.284Z,11.67
2019-05-21T09:36:29.805Z,14.80
2019-05-21T09:39:20.937Z,9.80
2019-05-21T09:41:47.058Z,12.67
2019-05-21T09:44:16.973Z,13.30
2019-05-21T09:46:50.570Z,7.40
2019-05-21T09:49:20.917Z,7.70
2019-05-21T09:51:55.516Z,9.43
2019-05-21T09:54:25.146Z,6.30
2019-05-21T09:57:00.877Z,7.47
2019-05-21T09:59:53.372Z,8.37
2019-05-21T10:02:29.569Z,10.23
2019-05-21T10:05:00.467Z,7.13
2019-05-21T10:07:50.974Z,6.77
2019-05-21T10:10:29.667Z,9.53
2019-05-21T10:13:24.309Z,9.30
2019-05-21T10:16:01.598Z,10.60
2019-05-21T10:18:43.519Z,13.50
2019-05-21T10:21:19.910Z,8.23
2019-05-21T10:24:04.336Z,10.77
2019-05-21T10:26:39.945Z,9.67
2019-05-21T10:29:15.508Z,11.00
2019-05-21T10:31:51.180Z,11.83
2019-05-21T10:34:23.230Z,9.10
2019-05-21T10:36:54.959Z,6.60
2019-05-21T10:39:35.045Z,11.33
2019-05-21T10:42:05.337Z,9.40
2019-05-21T10:44:48.440Z,12.30
2019-05-21T10:47:36.736Z,9.93
2019-05-21T10:50:11.867Z,14.43
2019-05-21T10:52:47.476Z,10.47
2019-05-21T10:55:17.696Z,13.53
2019-05-21T10:57:48.433Z,9.23
2019-05-21T11:00:23.073Z,15.50
2019-05-21T11:03:04.823Z,9.77
2019-05-21T11:06:09.726Z,6.23
2019-05-21T11:08:30.468Z,7.73
2019-05-21T11:11:11.690Z,12.17
2019-05-21T11:13:41.618Z,14.87
2019-05-21T11:16:13.947Z,13.73
2019-05-21T11:18:58.418Z,12.80
2019-05-21T11:21:53.554Z,9.43
2019-05-21T11:24:38.799Z,10.23
2019-05-21T11:27:16.512Z,10.70
2019-05-21T11:30:08.900Z,12.00
2019-05-21T11:32:55.147Z,11.50
2019-05-21T11:35:28.259Z,12.87
2019-05-21T11:38:17.879Z,9.10
2019-05-21T11:40:56.954Z,9.43
2019-05-21T11:43:29.744Z,9.20
2019-05-21T11:46:03.147Z,9.13
2019-05-21T11:48:43.503Z,8.00
2019-05-21T11:51:32.412Z,11.03
2019-05-21T11:54:02.657Z,10.67
2019-05-21T11:56:45.676Z,10.27
2019-05-21T11:59:17.804Z,11.13
2019-05-21T12:01:55.439Z,7.83
2019-05-21T12:04:29.505Z,11.70
2019-05-21T12:07:11.403Z,10.30
2019-05-21T12:09:53.672Z,15.10
2019-05-21T12:12:35.216Z,10.87
2019-05-21T12:15:09.300Z,11.50
2019-05-21T12:17:38.547Z,11.73
2019-05-21T12:23:06.994Z,11.03
2019-05-21T12:25:36.497Z,11.80
2019-05-21T12:28:21.546Z,11.47
2019-05-21T12:30:55.216Z,13.63
2019-05-21T12:33:28.729Z,11.03
2019-05-21T12:36:01.030Z,12.80
2019-05-21T12:39:14.356Z,13.00
2019-05-21T12:41:41.812Z,11.73
2019-05-21T12:44:21.849Z,11.47
2019-05-21T12:46:59.357Z,14.93
2019-05-21T12:49:29.644Z,9.53
2019-05-21T12:51:59.199Z,9.23
2019-05-21T12:54:33.599Z,10.53
2019-05-21T12:57:09.953Z,9.10
2019-05-21T12:59:52.308Z,11.73
2019-05-21T13:02:35.706Z,10.87
2019-05-21T13:05:06.574Z,11.27
2019-05-21T13:07:48.111Z,12.20
2019-05-21T13:10:18.948Z,11.80
2019-05-21T13:12:52.857Z,9.23
2019-05-21T13:15:26.023Z,14.27
2019-05-21T13:18:06.349Z,13.90
2019-05-21T13:20:36.133Z,9.23
2019-05-21T13:23:13.948Z,12.07
2019-05-21T13:25:49.571Z,10.77
2019-05-21T13:28:24.776Z,13.50
2019-05-21T13:31:40.322Z,15.47
2019-05-21T13:34:09.762Z,11.57
2019-05-21T13:36:53.953Z,15.93
2019-05-21T13:39:25.844Z,15.20
2019-05-21T13:42:01.122Z,12.20
2019-05-21T13:44:31.478Z,15.17
2019-05-21T13:47:05.879Z,14.60
2019-05-21T13:49:38.292Z,13.50
2019-05-21T13:52:11.432Z,15.93
2019-05-21T13:54:44.218Z,12.77
2019-05-21T13:57:27.130Z,16.80
2019-05-21T14:00:16.437Z,15.90
2019-05-21T14:02:46.053Z,10.60
2019-05-21T14:05:30.204Z,16.63
2019-05-21T14:08:11.426Z,13.03
2019-05-21T14:10:45.885Z,13.97
2019-05-21T14:13:17.931Z,13.27
2019-05-21T14:15:54.522Z,15.73
2019-05-21T14:18:31.423Z,15.67
2019-05-21T14:21:07.208Z,13.90
2019-05-21T14:23:37.966Z,10.37
2019-05-21T14:26:11.352Z,14.93
2019-05-21T14:28:43.734Z,15.60
2019-05-21T14:31:16.894Z,13.93
2019-05-21T14:33:59.006Z,12.47
2019-05-21T14:36:29.648Z,9.77
2019-05-21T14:39:06.459Z,14.90
2019-05-21T14:41:37.786Z,12.37
2019-05-21T14:44:14.981Z,11.50
2019-05-21T14:46:59.533Z,12.87
2019-05-21T14:49:29.875Z,12.70
2019-05-21T14:52:16.573Z,15.67
2019-05-21T14:54:52.532Z,18.17
2019-05-21T14:57:22.422Z,14.03
2019-05-21T15:00:00.132Z,12.17
2019-05-21T15:02:36.919Z,11.50
2019-05-21T15:05:06.377Z,12.77
2019-05-21T15:07:52.519Z,9.20
2019-05-21T15:10:25.987Z,9.57
2019-05-21T15:12:58.301Z,12.93
2019-05-21T15:15:30.829Z,17.03
2019-05-21T15:18:07.618Z,14.77
2019-05-21T15:21:14.127Z,22.10
2019-05-21T15:24:03.117Z,15.10
2019-05-21T15:26:44.260Z,11.47
2019-05-21T15:29:16.826Z,18.10
2019-05-21T15:36:35.875Z,14.37
2019-05-21T15:38:12.750Z,15.80
2019-05-21T15:41:10.175Z,12.07
2019-05-21T15:43:33.298Z,16.30
2019-05-21T15:46:09.994Z,11.37
2019-05-21T15:48:53.982Z,13.90
2019-05-21T15:51:37.977Z,10.67
2019-05-21T15:54:10.089Z,16.57
2019-05-21T15:56:51.022Z,14.43
2019-05-21T15:59:54.977Z,11.03
2019-05-21T16:02:34.421Z,13.83
2019-05-21T16:05:30.189Z,19.00
2019-05-21T16:08:21.608Z,12.63
2019-05-21T16:10:51.123Z,9.90
2019-05-21T16:13:20.755Z,11.93
2019-05-21T16:16:15.636Z,13.87
2019-05-21T16:18:46.042Z,12.87
2019-05-21T16:21:34.989Z,9.90
2019-05-21T16:24:06.996Z,15.63
2019-05-21T16:26:40.787Z,12.60
2019-05-21T16:29:12.555Z,14.93
2019-05-21T16:31:57.730Z,13.73
2019-05-21T16:34:29.815Z,12.27
2019-05-21T16:37:02.044Z,13.30
2019-05-21T16:39:31.649Z,13.63
2019-05-21T16:42:01.818Z,9.23
2019-05-21T16:44:44.962Z,15.03
2019-05-21T16:47:46.435Z,14.07
2019-05-21T16:50:51.128Z,12.17
2019-05-21T16:53:28.527Z,11.30
2019-05-21T16:56:05.300Z,13.77
2019-05-21T16:58:38.186Z,12.03
2019-05-21T17:04:38.558Z,9.87
2019-05-21T17:06:39.604Z,9.40
2019-05-21T17:09:22.825Z,6.70
2019-05-21T17:12:00.455Z,12.37
2019-05-21T17:14:36.983Z,16.43
2019-05-21T17:17:10.962Z,18.23
2019-05-21T17:19:43.065Z,14.93
2019-05-21T17:22:15.264Z,10.17
2019-05-21T17:24:58.245Z,9.63
2019-05-21T17:27:30.192Z,9.47
2019-05-21T17:30:01.297Z,13.80
2019-05-21T17:32:31.641Z,11.10
2019-05-21T17:35:01.500Z,7.83
2019-05-21T17:37:31.450Z,10.00
2019-05-21T17:40:01.110Z,11.83
2019-05-21T17:42:31.161Z,18.30
2019-05-21T17:45:13.437Z,12.03
2019-05-21T17:47:45.432Z,15.23
2019-05-21T17:50:16.579Z,12.30
2019-05-21T17:52:46.186Z,14.93
2019-05-21T17:55:22.729Z,13.80
2019-05-21T17:58:01.926Z,12.73
2019-05-21T18:00:57.442Z,9.90
2019-05-21T18:04:01.175Z,9.37
2019-05-21T18:06:34.070Z,12.17
2019-05-21T18:09:28.146Z,13.73
2019-05-21T18:12:53.804Z,9.50
2019-05-21T18:14:38.809Z,11.40
2019-05-21T18:17:16.838Z,13.37
2019-05-21T18:19:46.887Z,11.90
2019-05-21T18:22:27.197Z,11.40
2019-05-21T18:25:02.979Z,7.80
2019-05-21T18:27:36.303Z,12.03
2019-05-21T18:30:08.159Z,12.53
2019-05-21T18:32:44.596Z,13.00
2019-05-21T18:35:18.215Z,13.07
2019-05-21T18:37:52.638Z,11.83
2019-05-21T18:40:31.899Z,10.13
2019-05-21T18:43:15.464Z,11.27
2019-05-21T18:45:51.880Z,10.87
2019-05-21T18:48:27.630Z,10.90
2019-05-21T18:51:16.373Z,10.23
2019-05-21T18:53:47.608Z,15.17
2019-05-21T18:56:29.194Z,11.70
2019-05-21T18:58:59.345Z,10.80
2019-05-21T19:01:32.485Z,12.90
2019-05-21T19:04:03.419Z,21.87
2019-05-21T19:06:36.135Z,17.07
2019-05-21T19:09:08.803Z,12.87
2019-05-21T19:11:41.475Z,18.77
2019-05-21T19:14:15.002Z,18.93
2019-05-21T19:16:44.981Z,15.27
2019-05-21T19:19:14.463Z,18.07
2019-05-21T19:21:49.593Z,20.90
2019-05-21T19:24:26.373Z,23.83
2019-05-21T19:26:58.777Z,20.20
2019-05-21T19:29:47.126Z,20.43
2019-05-21T19:32:28.298Z,18.80
2019-05-21T19:35:04.465Z,22.20
2019-05-21T19:37:38.295Z,17.20
2019-05-21T19:40:14.651Z,19.70
2019-05-21T19:42:54.267Z,20.13
2019-05-21T19:45:31.331Z,17.23
2019-05-21T19:48:09.454Z,23.80
2019-05-21T19:51:09.164Z,16.57
2019-05-21T19:53:33.806Z,15.63
2019-05-21T19:56:07.979Z,16.00
2019-05-21T19:58:38.214Z,18.27
2019-05-21T20:01:17.772Z,15.57
2019-05-21T20:03:55.034Z,19.93
2019-05-21T20:06:25.349Z,17.40
2019-05-21T20:08:55.186Z,13.93
2019-05-21T20:11:37.453Z,17.73
2019-05-21T20:14:07.852Z,15.47
2019-05-21T20:16:37.951Z,13.03
2019-05-21T20:19:09.860Z,16.73
2019-05-21T20:21:42.471Z,15.10
2019-05-21T20:24:13.546Z,18.37
2019-05-21T20:26:45.063Z,13.67
2019-05-21T20:29:17.411Z,17.57
2019-05-21T20:31:50.450Z,17.33
2019-05-21T20:34:26.347Z,19.80
2019-05-21T20:36:55.827Z,17.57
2019-05-21T20:39:26.915Z,19.43
2019-05-21T20:42:00.489Z,20.10
2019-05-21T20:44:38.942Z,13.63
2019-05-21T20:47:24.244Z,13.23
2019-05-21T20:49:51.160Z,13.90
2019-05-21T20:52:21.166Z,13.47
2019-05-21T20:54:53.525Z,13.33
2019-05-21T20:57:24.979Z,13.80
2019-05-21T20:59:55.266Z,13.20
2019-05-21T21:02:26.345Z,19.23
2019-05-21T21:04:55.988Z,15.40
2019-05-21T21:07:25.742Z,17.97
2019-05-21T21:09:55.698Z,15.90
2019-05-21T21:12:26.626Z,20.17
2019-05-21T21:14:57.029Z,13.13
2019-05-21T21:17:30.850Z,18.30
2019-05-21T21:20:01.277Z,14.33
2019-05-21T21:22:32.528Z,13.13
2019-05-21T21:25:03.412Z,17.27
2019-05-21T21:27:36.195Z,14.47
2019-05-21T21:30:06.578Z,14.53
2019-05-21T21:32:36.509Z,13.97
2019-05-21T21:35:09.683Z,12.80
2019-05-21T21:37:39.482Z,16.13
2019-05-21T21:40:13.227Z,15.30
2019-05-21T21:42:44.113Z,15.50
2019-05-21T21:45:14.827Z,18.50
2019-05-21T21:47:44.313Z,15.10
2019-05-21T21:50:14.341Z,11.37
2019-05-21T21:52:44.273Z,15.03
2019-05-21T21:55:15.265Z,13.63
2019-05-21T21:57:45.153Z,14.23
2019-05-21T22:01:20.743Z,11.90
2019-05-21T22:03:51.259Z,11.53
2019-05-21T22:06:23.847Z,11.53
2019-05-21T22:08:54.691Z,13.90
2019-05-21T22:11:27.566Z,10.13
2019-05-21T22:13:57.783Z,10.33
2019-05-21T22:16:27.875Z,12.73
2019-05-21T22:18:57.861Z,9.57
2019-05-21T22:21:28.213Z,14.13
2019-05-21T22:23:59.604Z,12.47
2019-05-21T22:26:29.427Z,8.97
2019-05-21T22:28:59.935Z,12.63
2019-05-21T22:31:29.796Z,8.03
2019-05-21T22:34:22.982Z,9.20
2019-05-21T22:36:57.242Z,11.57
2019-05-21T22:39:31.798Z,11.30
2019-05-21T22:42:04.286Z,9.93
2019-05-21T22:44:37.585Z,13.07
2019-05-21T22:47:10.439Z,12.57
2019-05-21T22:49:43.269Z,9.57
2019-05-21T22:52:13.571Z,11.57
2019-05-21T22:54:47.969Z,16.60
2019-05-21T22:57:18.765Z,10.50
2019-05-21T22:59:48.237Z,11.63
2019-05-21T23:02:22.860Z,11.03
2019-05-21T23:04:53.030Z,11.60
2019-05-21T23:07:23.223Z,12.83
2019-05-21T23:09:56.041Z,11.65
2019-05-21T23:12:30.569Z,13.17
2019-05-21T23:15:01.192Z,13.03
2019-05-21T23:17:31.970Z,9.97
2019-05-21T23:20:02.206Z,14.17
2019-05-21T23:22:31.861Z,9.57
2019-05-21T23:25:02.714Z,9.83
2019-05-21T23:27:32.520Z,12.73
2019-05-21T23:32:55.192Z,10.13
2019-05-21T23:35:26.423Z,13.97
2019-05-21T23:37:58.715Z,11.57
2019-05-21T23:40:30.495Z,12.40
2019-05-21T23:43:04.138Z,12.80
2019-05-21T23:45:35.348Z,13.10
2019-05-21T23:48:10.610Z,13.07
2019-05-21T23:50:42.911Z,10.87
2019-05-21T23:53:14.300Z,10.10
2019-05-21T23:55:45.629Z,8.63
2019-05-21T23:58:15.641Z,11.37
